IL72 weather

Sisk Restricted Landing Area
Dunlap, Illinois, United States

Public forecast

Using degrees Fahrenheit for public forecast. Weather courtesy of forecast.io.

METAR (pilot weather report)

Closest report is General Wayne A. Downing Peoria International Airport, 11.4 nm (21.0 km) S. Retrieved 2019/06/24 08:23 UTC (21 minutes ago):

KPIA 240823Z 20005KT 9SM BKN011 OVC048 21/19 A2965

TAF (pilot weather forecast)

Forecast is more than 12 hours old.

Closest forecast is General Wayne A. Downing Peoria International Airport, 11.4 nm (21.0 km) S. Retrieved 2019/06/23 00:51 UTC (1 day ago):

TAF KPIA 232349Z 2400/2424 22009KT P6SM SCT045 BKN060 FM240500 22006KT P6SM OVC025 FM241100 23010KT P6SM VCSH BKN009 FM241800 25016G24KT P6SM BKN025 FM242100 25016G24KT P6SM SCT040